AEA445 LECO-LPPT
Flight info
| Callsign | AEA445 |
|---|---|
| Flight time | 0h 51m |
| Altitude | 35000 |
| Route | NARBO DCT RITUS DCT XAMAX |
| Aircraft | B738/M-SDE2E3FGHIRWXY/LB1 |
Departure
| Time | 2026-05-08 14:51 |
|---|---|
| Airport | A Coruña Airport (LECO) |
Arrival
| Time | 2026-05-08 15:42 |
|---|---|
| Airport | Lisbon Humberto Delgado Airport (LPPT) |
| Time | Latitude | Longitude | Altitude | Speed | Heading |
|---|---|---|---|---|---|
| 2026-05-08 14:34 | 43.30208 | -8.38037 | 340 ft | 0 kts | 359° |
| 2026-05-08 14:44 | 43.30222 | -8.38018 | 337 ft | 4 kts | 64° |
| 2026-05-08 14:44 | 43.30239 | -8.37951 | 336 ft | 9 kts | 50° |
| 2026-05-08 14:45 | 43.30273 | -8.37877 | 339 ft | 9 kts | 96° |
| 2026-05-08 14:45 | 43.30271 | -8.37867 | 340 ft | 0 kts | 113° |
| 2026-05-08 14:45 | 43.30265 | -8.37852 | 337 ft | 5 kts | 118° |
| 2026-05-08 14:46 | 43.30247 | -8.37805 | 337 ft | 6 kts | 118° |
| 2026-05-08 14:46 | 43.30228 | -8.37757 | 338 ft | 6 kts | 112° |
| 2026-05-08 14:46 | 43.30239 | -8.37698 | 338 ft | 9 kts | 45° |
| 2026-05-08 14:46 | 43.30309 | -8.37639 | 339 ft | 13 kts | 31° |
| 2026-05-08 14:47 | 43.30388 | -8.37576 | 335 ft | 13 kts | 30° |
| 2026-05-08 14:47 | 43.30446 | -8.37530 | 339 ft | 13 kts | 30° |
| 2026-05-08 14:47 | 43.30524 | -8.37468 | 338 ft | 13 kts | 30° |
| 2026-05-08 14:47 | 43.30600 | -8.37407 | 349 ft | 12 kts | 31° |
| 2026-05-08 14:48 | 43.30674 | -8.37346 | 348 ft | 12 kts | 31° |
| 2026-05-08 14:48 | 43.30747 | -8.37285 | 342 ft | 12 kts | 31° |
| 2026-05-08 14:48 | 43.30807 | -8.37235 | 346 ft | 12 kts | 31° |
| 2026-05-08 14:48 | 43.30872 | -8.37187 | 352 ft | 6 kts | 8° |
| 2026-05-08 14:49 | 43.30914 | -8.37189 | 342 ft | 6 kts | 358° |
| 2026-05-08 14:49 | 43.30962 | -8.37182 | 339 ft | 8 kts | 18° |
| 2026-05-08 14:49 | 43.30977 | -8.37120 | 340 ft | 8 kts | 119° |
| 2026-05-08 14:49 | 43.30952 | -8.37106 | 340 ft | 1 kts | 184° |
| 2026-05-08 14:50 | 43.30943 | -8.37113 | 341 ft | 2 kts | 216° |
| 2026-05-08 14:50 | 43.30926 | -8.37130 | 337 ft | 7 kts | 216° |
| 2026-05-08 14:50 | 43.30726 | -8.37313 | 344 ft | 79 kts | 209° |
| 2026-05-08 14:50 | 43.29982 | -8.37883 | 401 ft | 158 kts | 210° |
| 2026-05-08 14:51 | 43.28908 | -8.38742 | 994 ft | 197 kts | 212° |
| 2026-05-08 14:51 | 43.27695 | -8.39803 | 1921 ft | 210 kts | 214° |
| 2026-05-08 14:51 | 43.26473 | -8.40833 | 3150 ft | 202 kts | 199° |
| 2026-05-08 14:51 | 43.25135 | -8.40726 | 4124 ft | 200 kts | 157° |
| 2026-05-08 14:52 | 43.24164 | -8.39278 | 4702 ft | 219 kts | 111° |
| 2026-05-08 14:52 | 43.23546 | -8.35137 | 6388 ft | 225 kts | 101° |
| 2026-05-08 14:52 | 43.23531 | -8.32959 | 7291 ft | 232 kts | 84° |
| 2026-05-08 14:53 | 43.23826 | -8.30773 | 8284 ft | 235 kts | 85° |
| 2026-05-08 14:53 | 43.24079 | -8.28552 | 9255 ft | 236 kts | 83° |
| 2026-05-08 14:53 | 43.24368 | -8.26317 | 10035 ft | 239 kts | 86° |
| 2026-05-08 14:53 | 43.24581 | -8.24029 | 10716 ft | 244 kts | 86° |
| 2026-05-08 14:54 | 43.24823 | -8.21669 | 11423 ft | 256 kts | 85° |
| 2026-05-08 14:54 | 43.24978 | -8.19135 | 11761 ft | 279 kts | 99° |
| 2026-05-08 14:54 | 43.24246 | -8.16631 | 11950 ft | 294 kts | 133° |
| 2026-05-08 14:54 | 43.22641 | -8.14818 | 12169 ft | 314 kts | 149° |
| 2026-05-08 14:55 | 43.20712 | -8.13166 | 12343 ft | 339 kts | 150° |
| 2026-05-08 14:55 | 43.18630 | -8.11440 | 12687 ft | 354 kts | 150° |
| 2026-05-08 14:55 | 43.16499 | -8.09653 | 13223 ft | 364 kts | 150° |
| 2026-05-08 14:55 | 43.14330 | -8.07799 | 13747 ft | 371 kts | 149° |
| 2026-05-08 14:56 | 43.12130 | -8.05884 | 14222 ft | 376 kts | 149° |
| 2026-05-08 14:56 | 43.09912 | -8.03934 | 14708 ft | 381 kts | 150° |
| 2026-05-08 14:56 | 43.07523 | -8.02411 | 15182 ft | 381 kts | 165° |
| 2026-05-08 14:56 | 43.04909 | -8.01909 | 15699 ft | 380 kts | 180° |
| 2026-05-08 14:57 | 43.02265 | -8.02175 | 16215 ft | 384 kts | 187° |
| 2026-05-08 14:57 | 42.99604 | -8.02610 | 16779 ft | 386 kts | 187° |
| 2026-05-08 14:57 | 42.96927 | -8.03044 | 17336 ft | 389 kts | 187° |
| 2026-05-08 14:57 | 42.94234 | -8.03471 | 17883 ft | 391 kts | 187° |
| 2026-05-08 14:58 | 42.91503 | -8.03897 | 18258 ft | 398 kts | 187° |
| 2026-05-08 14:58 | 42.88735 | -8.04320 | 18700 ft | 401 kts | 187° |
| 2026-05-08 14:58 | 42.85992 | -8.04734 | 19191 ft | 402 kts | 187° |
| 2026-05-08 14:58 | 42.83192 | -8.05153 | 19662 ft | 404 kts | 187° |
| 2026-05-08 14:59 | 42.80380 | -8.05572 | 20083 ft | 407 kts | 187° |
| 2026-05-08 14:59 | 42.74708 | -8.06413 | 20924 ft | 412 kts | 188° |
| 2026-05-08 14:59 | 42.71840 | -8.06838 | 21248 ft | 418 kts | 188° |
| 2026-05-08 15:00 | 42.68934 | -8.07269 | 21585 ft | 422 kts | 189° |
| 2026-05-08 15:00 | 42.66048 | -8.07696 | 22012 ft | 423 kts | 189° |
| 2026-05-08 15:00 | 42.63124 | -8.08128 | 22463 ft | 424 kts | 189° |
| 2026-05-08 15:00 | 42.60180 | -8.08563 | 22849 ft | 426 kts | 189° |
| 2026-05-08 15:01 | 42.57222 | -8.08999 | 23231 ft | 429 kts | 189° |
| 2026-05-08 15:01 | 42.54235 | -8.09439 | 23578 ft | 432 kts | 189° |
| 2026-05-08 15:01 | 42.51243 | -8.09880 | 23923 ft | 433 kts | 189° |
| 2026-05-08 15:01 | 42.48235 | -8.10322 | 24248 ft | 435 kts | 189° |
| 2026-05-08 15:02 | 42.45220 | -8.10765 | 24545 ft | 436 kts | 188° |
| 2026-05-08 15:02 | 42.42196 | -8.11208 | 24833 ft | 438 kts | 188° |
| 2026-05-08 15:02 | 42.39158 | -8.11654 | 25131 ft | 440 kts | 188° |
| 2026-05-08 15:02 | 42.36105 | -8.12101 | 25395 ft | 442 kts | 188° |
| 2026-05-08 15:03 | 42.33073 | -8.12545 | 25669 ft | 443 kts | 188° |
| 2026-05-08 15:03 | 42.30005 | -8.12993 | 25910 ft | 445 kts | 189° |
| 2026-05-08 15:03 | 42.26915 | -8.13445 | 26175 ft | 447 kts | 189° |
| 2026-05-08 15:03 | 42.23819 | -8.13896 | 26452 ft | 448 kts | 189° |
| 2026-05-08 15:04 | 42.20706 | -8.14350 | 26695 ft | 450 kts | 189° |
| 2026-05-08 15:04 | 42.17589 | -8.14804 | 26959 ft | 451 kts | 188° |
| 2026-05-08 15:04 | 42.14460 | -8.15260 | 27194 ft | 452 kts | 188° |
| 2026-05-08 15:04 | 42.11330 | -8.15715 | 27410 ft | 453 kts | 188° |
| 2026-05-08 15:05 | 42.08196 | -8.16170 | 27729 ft | 452 kts | 189° |
| 2026-05-08 15:05 | 42.05066 | -8.16623 | 28142 ft | 450 kts | 189° |
| 2026-05-08 15:05 | 42.01964 | -8.17072 | 28540 ft | 448 kts | 189° |
| 2026-05-08 15:05 | 41.98906 | -8.17515 | 28823 ft | 448 kts | 188° |
| 2026-05-08 15:06 | 41.92682 | -8.18416 | 28745 ft | 448 kts | 188° |
| 2026-05-08 15:06 | 41.86505 | -8.19307 | 28734 ft | 445 kts | 188° |
| 2026-05-08 15:07 | 41.80366 | -8.20219 | 28739 ft | 442 kts | 189° |
| 2026-05-08 15:07 | 41.74283 | -8.21377 | 28741 ft | 441 kts | 191° |
| 2026-05-08 15:08 | 41.69239 | -8.22392 | 28737 ft | 440 kts | 191° |
| 2026-05-08 15:08 | 41.62146 | -8.23792 | 28740 ft | 440 kts | 191° |
| 2026-05-08 15:09 | 41.56110 | -8.24957 | 28745 ft | 441 kts | 190° |
| 2026-05-08 15:09 | 41.50041 | -8.26119 | 28744 ft | 441 kts | 190° |
| 2026-05-08 15:10 | 41.43965 | -8.27278 | 28734 ft | 441 kts | 190° |
| 2026-05-08 15:10 | 41.37882 | -8.28438 | 28729 ft | 440 kts | 190° |
| 2026-05-08 15:11 | 41.31812 | -8.29593 | 28732 ft | 440 kts | 190° |
| 2026-05-08 15:11 | 41.25811 | -8.30733 | 28737 ft | 433 kts | 190° |
| 2026-05-08 15:12 | 41.19900 | -8.31852 | 28757 ft | 426 kts | 190° |
| 2026-05-08 15:12 | 41.14022 | -8.32966 | 28764 ft | 427 kts | 190° |
| 2026-05-08 15:13 | 41.08133 | -8.34080 | 28767 ft | 428 kts | 190° |
| 2026-05-08 15:13 | 41.02229 | -8.35194 | 28750 ft | 429 kts | 190° |
| 2026-05-08 15:14 | 40.96317 | -8.36307 | 28750 ft | 429 kts | 190° |
| 2026-05-08 15:14 | 40.90399 | -8.37419 | 28748 ft | 429 kts | 190° |
| 2026-05-08 15:15 | 40.84486 | -8.38517 | 28749 ft | 429 kts | 190° |
| 2026-05-08 15:15 | 40.78613 | -8.39624 | 28758 ft | 428 kts | 190° |
| 2026-05-08 15:16 | 40.72712 | -8.40731 | 28749 ft | 428 kts | 191° |
| 2026-05-08 15:16 | 40.66818 | -8.41832 | 28742 ft | 427 kts | 190° |
| 2026-05-08 15:17 | 40.60929 | -8.42929 | 28745 ft | 427 kts | 190° |
| 2026-05-08 15:17 | 40.55054 | -8.44020 | 28746 ft | 425 kts | 191° |
| 2026-05-08 15:18 | 40.49194 | -8.45108 | 28744 ft | 424 kts | 191° |
| 2026-05-08 15:18 | 40.43398 | -8.46182 | 28742 ft | 423 kts | 191° |
| 2026-05-08 15:19 | 40.37576 | -8.47259 | 28745 ft | 422 kts | 191° |
| 2026-05-08 15:19 | 40.31758 | -8.48334 | 28895 ft | 424 kts | 191° |
| 2026-05-08 15:20 | 40.25893 | -8.49416 | 28658 ft | 425 kts | 191° |
| 2026-05-08 15:20 | 40.20088 | -8.50482 | 28757 ft | 421 kts | 191° |
| 2026-05-08 15:21 | 40.14261 | -8.51554 | 28798 ft | 420 kts | 192° |
| 2026-05-08 15:21 | 40.11387 | -8.52079 | 28446 ft | 416 kts | 192° |
| 2026-05-08 15:21 | 40.08513 | -8.52608 | 27960 ft | 417 kts | 192° |
| 2026-05-08 15:22 | 40.05697 | -8.53123 | 27416 ft | 411 kts | 191° |
| 2026-05-08 15:22 | 40.02869 | -8.53600 | 26834 ft | 407 kts | 188° |
| 2026-05-08 15:22 | 40.00039 | -8.53554 | 26266 ft | 406 kts | 180° |
| 2026-05-08 15:22 | 39.97233 | -8.53271 | 25719 ft | 403 kts | 179° |
| 2026-05-08 15:23 | 39.94454 | -8.52967 | 25173 ft | 399 kts | 179° |
| 2026-05-08 15:23 | 39.91693 | -8.52686 | 24633 ft | 396 kts | 179° |
| 2026-05-08 15:23 | 39.88948 | -8.52434 | 24108 ft | 393 kts | 179° |
| 2026-05-08 15:23 | 39.86225 | -8.52201 | 23596 ft | 391 kts | 179° |
| 2026-05-08 15:24 | 39.83542 | -8.51980 | 23031 ft | 389 kts | 179° |
| 2026-05-08 15:24 | 39.80848 | -8.51760 | 22429 ft | 387 kts | 179° |
| 2026-05-08 15:24 | 39.78169 | -8.51555 | 21845 ft | 384 kts | 182° |
| 2026-05-08 15:24 | 39.75546 | -8.51992 | 21265 ft | 379 kts | 197° |
| 2026-05-08 15:25 | 39.73131 | -8.53301 | 20713 ft | 375 kts | 207° |
| 2026-05-08 15:25 | 39.70828 | -8.54875 | 20159 ft | 372 kts | 209° |
| 2026-05-08 15:25 | 39.68567 | -8.56486 | 19610 ft | 369 kts | 209° |
| 2026-05-08 15:25 | 39.66336 | -8.58097 | 19080 ft | 365 kts | 210° |
| 2026-05-08 15:26 | 39.64127 | -8.59692 | 18469 ft | 361 kts | 210° |
| 2026-05-08 15:26 | 39.61957 | -8.61254 | 17793 ft | 352 kts | 210° |
| 2026-05-08 15:26 | 39.59856 | -8.62760 | 17094 ft | 347 kts | 209° |
| 2026-05-08 15:26 | 39.57755 | -8.64264 | 16370 ft | 341 kts | 209° |
| 2026-05-08 15:27 | 39.55689 | -8.65736 | 15664 ft | 335 kts | 208° |
| 2026-05-08 15:27 | 39.53664 | -8.67178 | 14991 ft | 329 kts | 208° |
| 2026-05-08 15:27 | 39.51671 | -8.68595 | 14345 ft | 325 kts | 208° |
| 2026-05-08 15:27 | 39.49701 | -8.69996 | 13710 ft | 321 kts | 208° |
| 2026-05-08 15:28 | 39.47748 | -8.71383 | 12979 ft | 318 kts | 207° |
| 2026-05-08 15:28 | 39.45839 | -8.72737 | 12301 ft | 315 kts | 207° |
| 2026-05-08 15:28 | 39.43927 | -8.74092 | 11608 ft | 311 kts | 207° |
| 2026-05-08 15:28 | 39.42037 | -8.75432 | 10933 ft | 308 kts | 207° |
| 2026-05-08 15:29 | 39.40788 | -8.76317 | 10551 ft | 311 kts | 207° |
| 2026-05-08 15:29 | 39.38858 | -8.77682 | 9967 ft | 314 kts | 207° |
| 2026-05-08 15:29 | 39.36928 | -8.79047 | 9349 ft | 315 kts | 206° |
| 2026-05-08 15:29 | 39.35051 | -8.80375 | 8781 ft | 307 kts | 207° |
| 2026-05-08 15:30 | 39.33218 | -8.81672 | 8336 ft | 295 kts | 206° |
| 2026-05-08 15:30 | 39.31441 | -8.82928 | 7924 ft | 285 kts | 206° |
| 2026-05-08 15:30 | 39.29757 | -8.84118 | 7824 ft | 265 kts | 206° |
| 2026-05-08 15:30 | 39.28198 | -8.85220 | 7802 ft | 245 kts | 206° |
| 2026-05-08 15:31 | 39.26749 | -8.86242 | 7836 ft | 229 kts | 206° |
| 2026-05-08 15:31 | 39.25382 | -8.87205 | 7845 ft | 221 kts | 205° |
| 2026-05-08 15:31 | 39.23995 | -8.88069 | 7840 ft | 222 kts | 201° |
| 2026-05-08 15:31 | 39.22569 | -8.88877 | 7838 ft | 225 kts | 201° |
| 2026-05-08 15:32 | 39.21126 | -8.89688 | 7815 ft | 227 kts | 201° |
| 2026-05-08 15:32 | 39.19679 | -8.90505 | 7836 ft | 227 kts | 201° |
| 2026-05-08 15:32 | 39.18235 | -8.91323 | 7820 ft | 227 kts | 201° |
| 2026-05-08 15:32 | 39.16786 | -8.92148 | 7542 ft | 229 kts | 201° |
| 2026-05-08 15:33 | 39.15340 | -8.92973 | 7167 ft | 223 kts | 201° |
| 2026-05-08 15:33 | 39.13973 | -8.93755 | 6799 ft | 213 kts | 201° |
| 2026-05-08 15:33 | 39.12640 | -8.94518 | 6427 ft | 206 kts | 201° |
| 2026-05-08 15:33 | 39.11349 | -8.95257 | 6045 ft | 200 kts | 201° |
| 2026-05-08 15:34 | 39.10110 | -8.96010 | 5659 ft | 195 kts | 204° |
| 2026-05-08 15:34 | 39.08917 | -8.96792 | 5283 ft | 190 kts | 203° |
| 2026-05-08 15:34 | 39.07747 | -8.97516 | 4922 ft | 184 kts | 202° |
| 2026-05-08 15:34 | 39.06586 | -8.98201 | 4548 ft | 183 kts | 201° |
| 2026-05-08 15:35 | 39.05425 | -8.98864 | 4167 ft | 182 kts | 201° |
| 2026-05-08 15:35 | 39.04276 | -8.99507 | 3985 ft | 172 kts | 200° |
| 2026-05-08 15:35 | 39.03187 | -9.00108 | 4017 ft | 171 kts | 200° |
| 2026-05-08 15:35 | 39.02106 | -9.00700 | 4010 ft | 167 kts | 199° |
| 2026-05-08 15:36 | 39.01029 | -9.01284 | 4016 ft | 170 kts | 200° |
| 2026-05-08 15:36 | 38.99933 | -9.01877 | 4005 ft | 172 kts | 200° |
| 2026-05-08 15:36 | 38.98857 | -9.02470 | 4010 ft | 169 kts | 200° |
| 2026-05-08 15:36 | 38.97760 | -9.03068 | 4011 ft | 169 kts | 200° |
| 2026-05-08 15:37 | 38.96669 | -9.03658 | 3977 ft | 171 kts | 199° |
| 2026-05-08 15:37 | 38.95611 | -9.04227 | 3798 ft | 161 kts | 200° |
| 2026-05-08 15:37 | 38.94633 | -9.04752 | 3587 ft | 145 kts | 199° |
| 2026-05-08 15:37 | 38.93736 | -9.05232 | 3443 ft | 140 kts | 199° |
| 2026-05-08 15:38 | 38.92792 | -9.05735 | 3258 ft | 148 kts | 199° |
| 2026-05-08 15:38 | 38.91823 | -9.06255 | 2996 ft | 152 kts | 200° |
| 2026-05-08 15:38 | 38.90866 | -9.06767 | 2833 ft | 148 kts | 199° |
| 2026-05-08 15:38 | 38.89937 | -9.07266 | 2635 ft | 143 kts | 199° |
| 2026-05-08 15:39 | 38.89009 | -9.07763 | 2467 ft | 145 kts | 199° |
| 2026-05-08 15:39 | 38.88080 | -9.08260 | 2264 ft | 143 kts | 200° |
| 2026-05-08 15:39 | 38.87169 | -9.08747 | 2063 ft | 139 kts | 200° |
| 2026-05-08 15:39 | 38.86293 | -9.09217 | 1897 ft | 136 kts | 198° |
| 2026-05-08 15:40 | 38.85423 | -9.09683 | 1710 ft | 133 kts | 199° |
| 2026-05-08 15:40 | 38.84572 | -9.10141 | 1535 ft | 135 kts | 199° |
| 2026-05-08 15:40 | 38.83698 | -9.10606 | 1358 ft | 134 kts | 201° |
| 2026-05-08 15:40 | 38.82840 | -9.11068 | 1164 ft | 137 kts | 198° |
| 2026-05-08 15:41 | 38.81909 | -9.11566 | 957 ft | 146 kts | 199° |
| 2026-05-08 15:41 | 38.80998 | -9.12050 | 800 ft | 138 kts | 198° |
| 2026-05-08 15:41 | 38.80098 | -9.12528 | 591 ft | 143 kts | 199° |
| 2026-05-08 15:41 | 38.79230 | -9.13015 | 429 ft | 144 kts | 201° |
| 2026-05-08 15:42 | 38.78355 | -9.13474 | 367 ft | 133 kts | 200° |
| 2026-05-08 15:42 | 38.77657 | -9.13846 | 364 ft | 71 kts | 223° |
| 2026-05-08 15:42 | 38.77432 | -9.13903 | 359 ft | 24 kts | 169° |
| 2026-05-08 15:42 | 38.77355 | -9.13895 | 357 ft | 7 kts | 179° |
| 2026-05-08 15:43 | 38.77302 | -9.13893 | 360 ft | 8 kts | 179° |
| 2026-05-08 15:43 | 38.77251 | -9.13886 | 354 ft | 7 kts | 162° |
| 2026-05-08 15:43 | 38.77230 | -9.13844 | 354 ft | 7 kts | 101° |
| 2026-05-08 15:43 | 38.77243 | -9.13780 | 352 ft | 8 kts | 71° |
| 2026-05-08 15:44 | 38.77258 | -9.13722 | 351 ft | 1 kts | 73° |
| 2026-05-08 15:44 | 38.77261 | -9.13710 | 353 ft | 2 kts | 74° |
| 2026-05-08 15:44 | 38.77264 | -9.13693 | 356 ft | 2 kts | 76° |
| 2026-05-08 15:44 | 38.77268 | -9.13671 | 354 ft | 3 kts | 80° |
| 2026-05-08 15:45 | 38.77273 | -9.13637 | 349 ft | 4 kts | 78° |
| 2026-05-08 15:45 | 38.77281 | -9.13590 | 352 ft | 6 kts | 77° |
| 2026-05-08 15:45 | 38.77293 | -9.13525 | 354 ft | 9 kts | 78° |
| 2026-05-08 15:45 | 38.77307 | -9.13436 | 351 ft | 12 kts | 79° |
| 2026-05-08 15:46 | 38.77324 | -9.13319 | 337 ft | 15 kts | 80° |
| 2026-05-08 15:46 | 38.77274 | -9.13245 | 334 ft | 12 kts | 169° |
| 2026-05-08 15:46 | 38.77191 | -9.13223 | 333 ft | 12 kts | 166° |
| 2026-05-08 15:46 | 38.77114 | -9.13201 | 337 ft | 11 kts | 168° |
| 2026-05-08 15:47 | 38.77044 | -9.13182 | 337 ft | 11 kts | 168° |
| 2026-05-08 15:47 | 38.77006 | -9.13171 | 337 ft | 0 kts | 156° |
| 2026-05-08 15:47 | 38.77003 | -9.13164 | 337 ft | 3 kts | 124° |
| 2026-05-08 15:47 | 38.77003 | -9.13143 | 337 ft | 1 kts | 75° |
| 2026-05-08 15:48 | 38.77020 | -9.13123 | 336 ft | 2 kts | 43° |
| 2026-05-08 15:48 | 38.77025 | -9.13103 | 335 ft | 3 kts | 78° |
| 2026-05-08 15:48 | 38.77027 | -9.13092 | 336 ft | 0 kts | 79° |